createdAt,value
2019-05-02T00:01:23.705Z,41.30
2019-05-02T00:03:51.913Z,36.87
2019-05-02T00:06:20.561Z,36.53
2019-05-02T00:08:48.748Z,42.98
2019-05-02T00:11:17.491Z,38.63
2019-05-02T00:13:45.592Z,38.90
2019-05-02T00:16:15.328Z,41.33
2019-05-02T00:18:43.841Z,40.25
2019-05-02T00:21:12.422Z,36.40
2019-05-02T00:23:40.653Z,34.27
2019-05-02T00:26:09.188Z,40.10
2019-05-02T00:28:37.342Z,37.43
2019-05-02T00:31:07.408Z,38.28
2019-05-02T00:33:35.869Z,42.23
2019-05-02T00:36:04.523Z,37.23
2019-05-02T00:38:33.324Z,35.33
2019-05-02T00:41:03.668Z,45.00
2019-05-02T00:43:34.339Z,48.23
2019-05-02T00:46:01.976Z,39.90
2019-05-02T00:48:36.365Z,36.73
2019-05-02T00:51:04.284Z,47.23
2019-05-02T00:53:32.388Z,42.37
2019-05-02T00:56:00.600Z,43.40
2019-05-02T00:58:31.938Z,40.77
2019-05-02T01:01:18.281Z,45.23
2019-05-02T01:03:51.997Z,46.87
2019-05-02T01:06:17.956Z,39.70
2019-05-02T01:08:46.253Z,51.63
2019-05-02T01:11:14.391Z,49.77
2019-05-02T01:13:42.564Z,49.47
2019-05-02T01:16:15.204Z,43.83
2019-05-02T01:18:41.276Z,41.15
2019-05-02T01:21:10.764Z,47.00
2019-05-02T01:23:38.870Z,45.60
2019-05-02T01:26:08.713Z,48.70
2019-05-02T01:28:49.295Z,47.60
2019-05-02T01:31:20.283Z,40.13
2019-05-02T01:33:50.171Z,40.70
2019-05-02T01:36:31.888Z,42.97
2019-05-02T01:39:02.845Z,47.67
2019-05-02T01:41:31.099Z,44.63
2019-05-02T01:44:00.163Z,45.93
2019-05-02T01:46:29.330Z,48.05
2019-05-02T01:48:57.489Z,51.37
2019-05-02T01:51:25.587Z,49.43
2019-05-02T01:53:53.696Z,46.57
2019-05-02T01:56:21.874Z,46.33
2019-05-02T01:58:52.912Z,49.97
2019-05-02T02:01:21.547Z,53.00
2019-05-02T02:03:49.867Z,53.00
2019-05-02T02:06:18.102Z,57.17
2019-05-02T02:08:46.353Z,49.70
2019-05-02T02:11:14.534Z,51.57
2019-05-02T02:13:42.668Z,56.13
2019-05-02T02:16:10.808Z,57.87
2019-05-02T02:18:58.960Z,56.75
2019-05-02T02:21:30.944Z,50.20
2019-05-02T02:24:06.707Z,48.77
2019-05-02T02:26:34.943Z,52.63
2019-05-02T02:29:07.689Z,57.30
2019-05-02T02:31:39.960Z,54.47
2019-05-02T02:34:02.925Z,57.13
2019-05-02T02:36:34.191Z,54.30
2019-05-02T02:39:07.070Z,53.68
2019-05-02T02:41:30.831Z,58.33
2019-05-02T02:44:06.946Z,63.65
2019-05-02T02:46:40.178Z,64.40
2019-05-02T02:49:13.935Z,60.73
2019-05-02T02:51:38.268Z,63.87
2019-05-02T02:54:06.446Z,61.58
2019-05-02T02:56:40.578Z,67.67
2019-05-02T02:59:04.541Z,69.53
2019-05-02T03:01:32.665Z,71.80
2019-05-02T03:04:02.035Z,66.57
2019-05-02T03:06:30.680Z,66.30
2019-05-02T03:08:58.885Z,70.27
2019-05-02T03:11:28.636Z,66.17
2019-05-02T03:14:07.591Z,66.10
2019-05-02T03:16:46.030Z,70.13
2019-05-02T03:19:06.781Z,66.20
2019-05-02T03:21:35.156Z,72.07
2019-05-02T03:24:05.874Z,74.23
2019-05-02T03:26:33.675Z,77.97
2019-05-02T03:29:02.075Z,72.33
2019-05-02T03:31:31.448Z,75.70
2019-05-02T03:34:01.187Z,70.80
2019-05-02T03:36:36.034Z,83.12
2019-05-02T03:39:00.084Z,70.57
2019-05-02T03:41:28.306Z,95.57
2019-05-02T03:44:10.590Z,89.63
2019-05-02T03:46:26.409Z,115.83
2019-05-02T03:49:06.019Z,117.97
2019-05-02T03:51:25.245Z,96.53
2019-05-02T03:54:06.327Z,101.25
2019-05-02T03:56:23.620Z,102.17
2019-05-02T03:58:55.904Z,100.57
2019-05-02T04:01:23.050Z,108.70
2019-05-02T04:03:51.511Z,109.83
2019-05-02T04:06:21.193Z,103.38
2019-05-02T04:08:58.862Z,100.47
2019-05-02T04:11:21.237Z,86.93
2019-05-02T04:13:49.680Z,88.80
2019-05-02T04:16:17.900Z,89.32
2019-05-02T04:18:54.399Z,92.07
2019-05-02T04:21:24.135Z,83.37
2019-05-02T04:23:48.004Z,81.20
2019-05-02T04:26:16.283Z,80.97
2019-05-02T04:28:45.477Z,91.80
2019-05-02T04:31:14.313Z,87.60
2019-05-02T04:33:42.492Z,99.27
2019-05-02T04:36:15.280Z,95.50
2019-05-02T04:38:47.422Z,89.30
2019-05-02T04:41:10.448Z,103.83
2019-05-02T04:43:40.548Z,102.33
2019-05-02T04:46:17.529Z,94.63
2019-05-02T04:48:43.812Z,102.67
2019-05-02T04:51:14.207Z,94.87
2019-05-02T04:53:42.133Z,88.20
2019-05-02T04:56:10.649Z,100.47
2019-05-02T04:58:40.608Z,113.63
2019-05-02T05:01:10.122Z,102.73
2019-05-02T05:03:38.057Z,104.80
2019-05-02T05:06:07.970Z,109.73
2019-05-02T05:08:41.238Z,100.37
2019-05-02T05:11:07.654Z,93.00
2019-05-02T05:13:37.395Z,101.57
2019-05-02T05:16:08.612Z,91.10
2019-05-02T05:18:37.768Z,97.17
2019-05-02T05:21:10.242Z,94.23
2019-05-02T05:23:59.601Z,99.43
2019-05-02T05:26:27.662Z,99.37
2019-05-02T05:28:57.942Z,102.30
2019-05-02T05:31:28.875Z,107.30
2019-05-02T05:33:57.787Z,100.17
2019-05-02T05:36:32.597Z,98.72
2019-05-02T05:38:55.264Z,100.93
2019-05-02T05:41:24.127Z,95.60
2019-05-02T05:43:53.709Z,91.23
2019-05-02T05:46:21.916Z,97.03
2019-05-02T05:48:52.819Z,88.12
2019-05-02T05:51:21.128Z,88.57
2019-05-02T05:53:52.342Z,95.80
2019-05-02T05:56:19.109Z,97.90
2019-05-02T05:58:52.296Z,92.40
2019-05-02T06:01:20.061Z,91.87
2019-05-02T06:03:48.700Z,85.93
2019-05-02T06:06:22.770Z,89.70
2019-05-02T06:08:49.321Z,85.50
2019-05-02T06:11:20.143Z,80.00
2019-05-02T06:13:48.681Z,80.10
2019-05-02T06:16:17.114Z,77.67
2019-05-02T06:18:45.500Z,84.57
2019-05-02T06:21:13.697Z,110.57
2019-05-02T06:23:42.022Z,75.47
2019-05-02T06:26:13.435Z,66.33
2019-05-02T06:28:44.641Z,69.10
2019-05-02T06:31:14.471Z,65.13
2019-05-02T06:34:20.462Z,70.70
2019-05-02T06:36:36.804Z,59.00
2019-05-02T06:39:04.118Z,59.43
2019-05-02T06:41:32.344Z,68.45
2019-05-02T06:44:00.447Z,72.17
2019-05-02T06:46:29.748Z,78.72
2019-05-02T06:48:58.158Z,67.15
2019-05-02T06:51:26.705Z,67.50
2019-05-02T06:53:55.121Z,60.50
2019-05-02T06:56:23.267Z,54.57
2019-05-02T06:58:51.474Z,56.77
2019-05-02T07:01:21.308Z,54.10
2019-05-02T07:03:49.502Z,59.00
2019-05-02T07:06:17.949Z,53.53
2019-05-02T07:08:46.526Z,50.92
2019-05-02T07:11:14.706Z,48.10
2019-05-02T07:13:43.829Z,55.98
2019-05-02T07:16:38.616Z,53.00
2019-05-02T07:19:06.154Z,56.60
2019-05-02T07:21:34.359Z,54.43
2019-05-02T07:24:02.649Z,60.63
2019-05-02T07:26:30.801Z,61.63
2019-05-02T07:28:59.608Z,59.38
2019-05-02T07:31:27.714Z,53.53
2019-05-02T07:33:55.886Z,55.43
2019-05-02T07:36:24.064Z,58.77
2019-05-02T07:38:52.205Z,53.60
2019-05-02T07:41:24.180Z,57.65
2019-05-02T07:43:52.173Z,59.50
2019-05-02T07:46:21.006Z,61.35
2019-05-02T07:48:54.650Z,59.77
2019-05-02T07:51:21.241Z,61.07
2019-05-02T07:53:50.368Z,66.93
2019-05-02T07:56:19.045Z,64.15
2019-05-02T07:58:48.159Z,59.05
2019-05-02T08:01:16.292Z,69.27
2019-05-02T08:03:44.395Z,79.57
2019-05-02T08:06:12.521Z,71.67
2019-05-02T08:08:40.669Z,63.58
2019-05-02T08:11:08.885Z,63.10
2019-05-02T08:13:37.643Z,63.02
2019-05-02T08:16:08.915Z,63.53
2019-05-02T08:18:37.104Z,61.00
2019-05-02T08:21:05.284Z,62.37
2019-05-02T08:23:33.381Z,74.07
2019-05-02T08:26:01.570Z,70.52
2019-05-02T08:28:47.043Z,71.40
2019-05-02T08:31:13.680Z,71.00
2019-05-02T08:33:42.900Z,76.83
2019-05-02T08:36:11.086Z,73.37
2019-05-02T08:38:39.243Z,73.87
2019-05-02T08:41:07.466Z,75.23
2019-05-02T08:43:35.644Z,86.50
2019-05-02T08:46:04.038Z,75.03
2019-05-02T08:48:36.377Z,80.47
2019-05-02T08:51:02.091Z,76.67
2019-05-02T08:53:30.315Z,77.53
2019-05-02T08:55:58.489Z,72.17
2019-05-02T08:58:26.650Z,71.67
2019-05-02T09:00:54.780Z,81.47
2019-05-02T09:03:22.910Z,74.77
2019-05-02T09:05:51.085Z,69.93
2019-05-02T09:08:19.338Z,65.23
2019-05-02T09:10:47.519Z,69.50
2019-05-02T09:13:23.663Z,74.37
2019-05-02T09:15:51.098Z,76.50
2019-05-02T09:18:15.344Z,71.53
2019-05-02T09:20:46.936Z,77.95
2019-05-02T09:23:13.405Z,68.13
2019-05-02T09:25:42.995Z,68.83
2019-05-02T09:28:12.472Z,67.33
2019-05-02T09:30:41.938Z,72.63
2019-05-02T09:33:11.758Z,78.17
2019-05-02T09:35:42.026Z,75.33
2019-05-02T09:38:10.184Z,72.27
2019-05-02T09:40:40.003Z,77.17
2019-05-02T09:43:08.105Z,82.37
2019-05-02T09:45:41.015Z,70.43
2019-05-02T09:48:08.338Z,64.25
2019-05-02T09:50:38.190Z,70.87
2019-05-02T09:53:07.296Z,65.70
2019-05-02T09:55:35.516Z,64.57
2019-05-02T09:58:03.625Z,68.87
2019-05-02T10:00:39.053Z,63.98
2019-05-02T10:03:07.604Z,63.43
2019-05-02T10:05:35.820Z,71.75
2019-05-02T10:08:06.860Z,84.83
2019-05-02T10:10:40.259Z,67.22
2019-05-02T10:13:06.004Z,68.67
2019-05-02T10:15:34.963Z,71.40
2019-05-02T10:18:10.543Z,71.37
2019-05-02T10:20:36.240Z,70.90
2019-05-02T10:23:03.517Z,66.47
2019-05-02T10:25:38.621Z,67.80
2019-05-02T10:28:02.154Z,70.37
2019-05-02T10:30:35.494Z,68.80
2019-05-02T10:33:02.607Z,67.37
2019-05-02T10:35:37.305Z,67.80
2019-05-02T10:38:02.591Z,66.02
2019-05-02T10:40:32.136Z,64.83
2019-05-02T10:43:00.481Z,65.15
2019-05-02T10:45:28.634Z,64.10
2019-05-02T10:47:57.566Z,67.67
2019-05-02T10:50:30.285Z,62.23
2019-05-02T10:53:03.516Z,76.87
2019-05-02T10:55:29.012Z,61.53
2019-05-02T10:57:57.108Z,62.27
2019-05-02T11:00:27.033Z,55.33
2019-05-02T11:03:13.453Z,52.30
2019-05-02T11:05:44.714Z,54.37
2019-05-02T11:08:13.624Z,62.90
2019-05-02T11:10:42.335Z,60.50
2019-05-02T11:13:14.642Z,66.20
2019-05-02T11:16:04.453Z,54.50
2019-05-02T11:18:42.380Z,43.63
2019-05-02T11:21:08.210Z,40.80
2019-05-02T11:23:34.005Z,50.57
2019-05-02T11:26:02.275Z,52.97
2019-05-02T11:28:32.281Z,53.47
2019-05-02T11:31:02.679Z,53.23
2019-05-02T11:33:32.382Z,49.37
2019-05-02T11:36:02.389Z,41.67
2019-05-02T11:38:39.281Z,46.40
2019-05-02T11:40:59.920Z,44.73
2019-05-02T11:43:28.060Z,41.13
2019-05-02T11:46:02.515Z,43.07
2019-05-02T11:48:26.216Z,41.53
2019-05-02T11:50:54.328Z,43.80
2019-05-02T11:53:28.308Z,41.30
2019-05-02T11:55:53.265Z,36.23
2019-05-02T11:58:22.991Z,41.83
2019-05-02T12:00:52.337Z,47.43
2019-05-02T12:03:35.478Z,48.13
2019-05-02T12:06:01.995Z,41.20
2019-05-02T12:08:31.899Z,37.97
2019-05-02T12:11:01.945Z,35.63
2019-05-02T12:13:32.222Z,40.67
2019-05-02T12:16:00.005Z,33.50
2019-05-02T12:18:28.211Z,30.95
2019-05-02T12:20:56.402Z,34.50
2019-05-02T12:23:24.716Z,37.17
2019-05-02T12:25:52.933Z,34.93
2019-05-02T12:28:22.924Z,33.97
2019-05-02T12:30:51.905Z,34.08
2019-05-02T12:33:22.341Z,38.60
2019-05-02T12:35:52.547Z,32.30
2019-05-02T12:38:22.909Z,34.33
2019-05-02T12:40:52.012Z,33.63
2019-05-02T12:43:22.749Z,28.57
2019-05-02T12:45:52.805Z,30.97
2019-05-02T12:48:21.979Z,38.83
2019-05-02T12:50:50.019Z,32.83
2019-05-02T12:53:18.127Z,34.80
2019-05-02T12:55:46.263Z,31.63
2019-05-02T12:58:14.429Z,29.73
2019-05-02T13:00:43.221Z,35.33
2019-05-02T13:03:29.226Z,25.03
2019-05-02T13:05:57.471Z,31.30
2019-05-02T13:08:25.587Z,31.57
2019-05-02T13:11:13.913Z,30.30
2019-05-02T13:13:41.830Z,33.67
2019-05-02T13:16:12.050Z,33.20
2019-05-02T13:18:39.628Z,35.33
2019-05-02T13:21:15.145Z,39.80
2019-05-02T13:23:44.435Z,39.10
2019-05-02T13:26:19.853Z,40.23
2019-05-02T13:28:44.217Z,34.83
2019-05-02T13:31:34.976Z,38.53
2019-05-02T13:34:17.035Z,35.53
2019-05-02T13:36:48.010Z,35.67
2019-05-02T13:39:18.800Z,37.23
2019-05-02T13:41:47.020Z,43.10
2019-05-02T13:44:16.928Z,41.77
2019-05-02T13:46:45.212Z,51.20
2019-05-02T13:49:13.447Z,60.50
2019-05-02T13:51:42.612Z,58.80
2019-05-02T13:54:12.534Z,73.83
2019-05-02T13:56:52.608Z,72.10
2019-05-02T13:59:22.243Z,84.20
2019-05-02T14:01:52.495Z,81.23
2019-05-02T14:04:22.965Z,81.67
2019-05-02T14:06:52.688Z,93.23
2019-05-02T14:09:25.049Z,99.57
2019-05-02T14:12:02.006Z,94.77
2019-05-02T14:14:32.613Z,106.97
2019-05-02T14:17:07.367Z,104.20
2019-05-02T14:19:35.869Z,110.50
2019-05-02T14:22:05.388Z,110.47
2019-05-02T14:24:33.700Z,101.33
2019-05-02T14:27:02.615Z,106.37
2019-05-02T14:29:32.849Z,116.60
2019-05-02T14:32:02.676Z,107.37
2019-05-02T14:34:45.019Z,101.13
2019-05-02T14:37:13.492Z,99.93
2019-05-02T14:39:48.745Z,104.57
2019-05-02T14:42:23.577Z,103.43
2019-05-02T14:45:11.877Z,98.57
2019-05-02T14:47:25.193Z,94.73
2019-05-02T14:49:56.647Z,96.12
2019-05-02T14:52:23.327Z,87.93
2019-05-02T14:54:52.534Z,88.17
2019-05-02T14:57:25.707Z,92.23
2019-05-02T14:59:59.088Z,93.60
2019-05-02T15:02:23.328Z,79.77
2019-05-02T15:04:52.482Z,83.82
2019-05-02T15:07:22.869Z,93.10
2019-05-02T15:09:52.392Z,98.57
2019-05-02T15:12:22.207Z,89.63
2019-05-02T15:14:57.050Z,78.77
2019-05-02T15:17:20.331Z,82.40
2019-05-02T15:19:48.436Z,72.23
2019-05-02T15:22:16.587Z,76.33
2019-05-02T15:24:44.700Z,64.00
2019-05-02T15:27:17.744Z,72.83
2019-05-02T15:29:43.604Z,71.27
2019-05-02T15:32:28.513Z,78.40
2019-05-02T15:34:58.267Z,69.43
2019-05-02T15:37:28.601Z,80.32
2019-05-02T15:42:26.724Z,88.70
2019-05-02T15:44:57.155Z,119.57
2019-05-02T15:47:25.214Z,52.65
2019-05-02T15:49:53.361Z,58.60
2019-05-02T15:52:27.755Z,65.97
2019-05-02T15:54:59.764Z,65.77
2019-05-02T15:57:26.104Z,72.63
2019-05-02T15:59:54.564Z,76.65
2019-05-02T16:02:27.196Z,89.37
2019-05-02T16:04:57.056Z,100.17
2019-05-02T16:07:26.462Z,90.67
2019-05-02T16:09:59.375Z,81.90
2019-05-02T16:12:27.118Z,79.67
2019-05-02T16:14:55.217Z,78.13
2019-05-02T16:17:25.740Z,90.00
2019-05-02T16:19:58.691Z,85.87
2019-05-02T16:22:25.632Z,93.53
2019-05-02T16:24:56.526Z,85.20
2019-05-02T16:27:44.122Z,92.30
2019-05-02T16:30:13.370Z,92.77
2019-05-02T16:32:44.284Z,88.00
2019-05-02T16:35:17.314Z,94.80
2019-05-02T16:37:46.750Z,95.73
2019-05-02T16:40:14.893Z,76.87
2019-05-02T16:42:43.087Z,74.27
2019-05-02T16:45:11.839Z,74.27
2019-05-02T16:47:42.312Z,71.17
2019-05-02T16:50:12.209Z,86.10
2019-05-02T16:52:43.796Z,86.80
2019-05-02T16:55:13.614Z,80.30
2019-05-02T16:57:42.396Z,90.17
2019-05-02T17:00:16.803Z,95.97
2019-05-02T17:02:46.395Z,94.13
2019-05-02T17:05:14.991Z,98.57
2019-05-02T17:08:02.308Z,87.42
2019-05-02T17:10:34.827Z,90.77
2019-05-02T17:13:02.763Z,83.57
2019-05-02T17:15:35.775Z,75.77
2019-05-02T17:18:12.623Z,74.55
2019-05-02T17:20:35.505Z,67.00
2019-05-02T17:23:07.423Z,74.55
2019-05-02T17:25:33.699Z,79.70
2019-05-02T17:28:06.974Z,75.23
2019-05-02T17:30:38.644Z,78.97
2019-05-02T17:33:07.120Z,78.97
2019-05-02T17:35:35.409Z,75.67
2019-05-02T17:38:03.920Z,88.23
2019-05-02T17:40:32.023Z,69.12
2019-05-02T17:43:02.998Z,78.78
2019-05-02T17:45:33.303Z,74.57
2019-05-02T17:48:00.287Z,75.60
2019-05-02T17:50:36.387Z,79.20
2019-05-02T17:53:06.437Z,72.60
2019-05-02T17:55:40.306Z,76.63
2019-05-02T17:58:12.597Z,93.67
2019-05-02T18:00:38.974Z,83.40
2019-05-02T18:03:07.205Z,84.87
2019-05-02T18:05:35.852Z,82.27
2019-05-02T18:08:05.865Z,88.90
2019-05-02T18:10:34.816Z,85.60
2019-05-02T18:13:05.352Z,84.50
2019-05-02T18:15:34.742Z,75.70
2019-05-02T18:18:06.769Z,81.85
2019-05-02T18:20:37.086Z,79.13
2019-05-02T18:23:12.301Z,72.67
2019-05-02T18:25:40.956Z,80.47
2019-05-02T18:28:09.119Z,82.42
2019-05-02T18:30:37.220Z,80.67
2019-05-02T18:33:07.287Z,75.00
2019-05-02T18:35:37.501Z,83.60
2019-05-02T18:38:05.229Z,79.57
2019-05-02T18:40:33.479Z,78.30
2019-05-02T18:43:05.157Z,79.80
2019-05-02T18:45:32.005Z,81.87
2019-05-02T18:48:06.547Z,77.73
2019-05-02T18:50:31.917Z,84.30
2019-05-02T18:53:00.302Z,75.80
2019-05-02T18:55:28.567Z,76.85
2019-05-02T18:57:56.991Z,83.37
2019-05-02T19:00:27.983Z,80.53
2019-05-02T19:02:56.693Z,81.13
2019-05-02T19:05:26.496Z,98.73
2019-05-02T19:07:56.399Z,82.87
2019-05-02T19:10:27.445Z,71.57
2019-05-02T19:13:00.979Z,75.70
2019-05-02T19:15:31.739Z,82.97
2019-05-02T19:18:02.430Z,81.33
2019-05-02T19:20:35.221Z,79.47
2019-05-02T19:25:39.127Z,77.60
2019-05-02T19:28:20.938Z,76.47
2019-05-02T19:30:49.528Z,82.83
2019-05-02T19:33:23.398Z,84.97
2019-05-02T19:35:52.594Z,69.57
2019-05-02T19:38:22.639Z,79.63
2019-05-02T19:40:52.036Z,71.67
2019-05-02T19:43:20.395Z,77.67
2019-05-02T19:45:52.571Z,54.00
2019-05-02T19:48:18.585Z,62.43
2019-05-02T19:50:46.872Z,51.87
2019-05-02T19:55:57.270Z,61.87
2019-05-02T19:58:22.509Z,43.83
2019-05-02T20:11:13.784Z,10.70
2019-05-02T20:13:41.912Z,9.60
2019-05-02T20:16:22.468Z,6.80
2019-05-02T20:18:52.156Z,8.27
2019-05-02T20:21:27.439Z,9.10
2019-05-02T20:23:52.330Z,8.17
2019-05-02T20:26:22.125Z,6.13
2019-05-02T20:28:52.611Z,5.53
2019-05-02T20:31:21.721Z,6.63
2019-05-02T20:33:51.907Z,9.35
2019-05-02T20:36:19.959Z,6.80
2019-05-02T20:38:48.135Z,6.17
2019-05-02T20:41:16.512Z,8.57
2019-05-02T20:43:45.444Z,7.43
2019-05-02T20:46:13.619Z,9.80
2019-05-02T20:48:41.954Z,12.13
2019-05-02T20:51:11.991Z,7.37
2019-05-02T20:53:41.841Z,7.13
2019-05-02T20:56:12.179Z,11.53
2019-05-02T20:58:41.851Z,6.97
2019-05-02T21:01:12.187Z,8.80
2019-05-02T21:03:39.796Z,10.53
2019-05-02T21:06:09.610Z,8.50
2019-05-02T21:08:39.384Z,9.03
2019-05-02T21:11:07.760Z,6.17
2019-05-02T21:13:35.997Z,12.80
2019-05-02T21:16:04.388Z,7.10
2019-05-02T21:18:32.891Z,7.55
2019-05-02T21:21:01.159Z,8.37
2019-05-02T21:23:41.942Z,5.87
2019-05-02T21:26:01.897Z,7.50
2019-05-02T21:28:31.998Z,5.70
2019-05-02T21:31:00.652Z,6.77
2019-05-02T21:33:32.476Z,7.80
2019-05-02T21:36:00.891Z,8.93
2019-05-02T21:38:29.034Z,7.00
2019-05-02T21:40:57.147Z,7.00
2019-05-02T21:43:25.319Z,9.70
2019-05-02T21:45:53.567Z,14.20
2019-05-02T21:48:23.280Z,13.47
2019-05-02T21:51:05.164Z,13.27
2019-05-02T21:53:34.929Z,14.93
2019-05-02T21:56:12.296Z,14.73
2019-05-02T21:58:42.769Z,12.27
2019-05-02T22:01:13.028Z,14.30
2019-05-02T22:03:41.392Z,15.37
2019-05-02T22:06:09.702Z,19.15
2019-05-02T22:08:37.816Z,18.83
2019-05-02T22:11:06.853Z,15.73
2019-05-02T22:13:36.658Z,15.57
2019-05-02T22:16:05.656Z,15.23
2019-05-02T22:18:33.762Z,14.77
2019-05-02T22:21:01.956Z,14.00
2019-05-02T22:23:33.587Z,13.37
2019-05-02T22:26:01.988Z,22.77
2019-05-02T22:28:29.771Z,14.58
2019-05-02T22:30:57.890Z,18.70
2019-05-02T22:33:26.768Z,13.00
2019-05-02T22:35:54.869Z,14.50
2019-05-02T22:38:24.646Z,13.67
2019-05-02T22:40:54.552Z,15.43
2019-05-02T22:43:22.708Z,17.23
2019-05-02T22:45:50.906Z,12.85
2019-05-02T22:48:19.111Z,11.40
2019-05-02T22:50:47.254Z,16.12
2019-05-02T22:53:15.407Z,15.03
2019-05-02T22:55:45.211Z,16.35
2019-05-02T22:58:13.320Z,18.53
2019-05-02T23:00:41.698Z,16.97
2019-05-02T23:03:09.963Z,17.80
2019-05-02T23:05:38.245Z,17.77
2019-05-02T23:08:06.360Z,18.40
2019-05-02T23:10:34.540Z,25.27
2019-05-02T23:13:02.818Z,21.82
2019-05-02T23:15:32.089Z,21.20
2019-05-02T23:18:01.686Z,18.40
2019-05-02T23:20:29.998Z,18.73
2019-05-02T23:22:58.154Z,23.27
2019-05-02T23:25:44.631Z,17.70
2019-05-02T23:28:14.944Z,18.30
2019-05-02T23:30:43.124Z,23.83
2019-05-02T23:33:12.980Z,22.53
2019-05-02T23:35:43.046Z,19.77
2019-05-02T23:38:12.592Z,17.50
2019-05-02T23:40:42.071Z,15.30
2019-05-02T23:43:10.253Z,16.17
2019-05-02T23:45:38.471Z,15.23
2019-05-02T23:48:06.652Z,18.73
2019-05-02T23:50:35.279Z,19.80
2019-05-02T23:53:03.452Z,18.47
2019-05-02T23:55:32.229Z,26.90
2019-05-02T23:58:00.381Z,13.90
